Time;durP1;ratioP1;P1;durP2;ratioP2;P2;SDS_P1;SDS_P2;PMS_P1;PMS_P2;Temp;Humidity;BMP_temperature;BMP_pressure;BME280_temperature;BME280_humidity;BME280_pressure;Samples;Min_cycle;Max_cycle;Signal;HPM_P1;HPM_P2
2021/10/25 00:02:22;;;;;;;2.13;1.88;;;9.70;58.60;;;;;;4974440;28;20038;-54
2021/10/25 00:04:47;;;;;;;2.00;1.90;;;9.70;58.60;;;;;;4974429;28;20023;-54
2021/10/25 00:07:13;;;;;;;2.08;1.92;;;9.70;58.50;;;;;;4990029;28;20085;-56
2021/10/25 00:09:39;;;;;;;1.73;1.63;;;9.70;58.80;;;;;;4989383;28;20030;-53
2021/10/25 00:12:05;;;;;;;2.20;2.00;;;9.70;58.70;;;;;;4974299;28;20023;-55
2021/10/25 00:14:31;;;;;;;2.00;1.90;;;9.70;58.70;;;;;;4983995;28;20030;-54
2021/10/25 00:16:57;;;;;;;2.08;1.92;;;9.70;58.70;;;;;;4993691;28;20030;-56
2021/10/25 00:19:22;;;;;;;2.28;2.00;;;9.60;58.80;;;;;;4977323;28;20105;-54
2021/10/25 00:21:49;;;;;;;2.00;1.88;;;9.70;58.90;;;;;;4975432;28;20034;-56
2021/10/25 00:24:16;;;;;;;2.40;2.20;;;9.60;58.80;;;;;;4974168;28;20038;-54
2021/10/25 00:26:42;;;;;;;1.90;1.80;;;9.70;58.50;;;;;;4974222;28;20073;-55
2021/10/25 00:29:08;;;;;;;2.05;1.85;;;9.60;58.30;;;;;;4974403;28;20031;-55
2021/10/25 00:31:33;;;;;;;2.13;1.92;;;9.60;58.30;;;;;;4987387;28;20038;-55
2021/10/25 00:33:59;;;;;;;2.97;2.08;;;9.60;58.30;;;;;;4993346;28;20033;-54
2021/10/25 00:36:25;;;;;;;2.15;1.98;;;9.60;58.40;;;;;;4993432;28;20029;-55
2021/10/25 00:38:51;;;;;;;1.80;1.70;;;9.60;58.40;;;;;;4993328;28;20038;-55
2021/10/25 00:41:17;;;;;;;2.22;2.08;;;9.60;58.40;;;;;;4994527;28;20049;-55
2021/10/25 00:43:42;;;;;;;2.00;1.80;;;9.60;58.40;;;;;;4978108;28;20343;-56
2021/10/25 00:46:09;;;;;;;1.83;1.73;;;9.60;58.50;;;;;;4977985;28;20019;-54
2021/10/25 00:48:35;;;;;;;2.20;2.00;;;9.60;58.40;;;;;;4987161;28;20018;-57
2021/10/25 00:51:04;;;;;;;2.13;2.00;;;9.60;58.30;;;;;;4997318;28;20533;-54
2021/10/25 00:53:31;;;;;;;2.00;1.80;;;9.60;58.20;;;;;;4997183;28;20038;-56
2021/10/25 00:55:58;;;;;;;2.17;1.98;;;9.60;58.00;;;;;;4997529;28;20421;-57
2021/10/25 00:58:23;;;;;;;1.80;1.70;;;9.60;58.00;;;;;;4996737;28;20356;-54
2021/10/25 01:00:49;;;;;;;1.85;1.75;;;9.60;58.20;;;;;;4996958;28;20037;-56
2021/10/25 01:03:16;;;;;;;3.17;2.20;;;9.50;58.10;;;;;;4997145;28;20033;-54
2021/10/25 01:05:42;;;;;;;2.05;1.80;;;9.60;58.30;;;;;;4997194;28;20374;-53
2021/10/25 01:08:08;;;;;;;2.22;2.03;;;9.60;58.20;;;;;;4996978;28;20027;-56
2021/10/25 01:10:34;;;;;;;2.08;1.98;;;9.60;58.20;;;;;;4997022;28;20026;-54
2021/10/25 01:13:01;;;;;;;2.45;2.22;;;9.50;58.20;;;;;;4997109;28;20036;-56
2021/10/25 01:15:27;;;;;;;2.15;1.98;;;9.60;58.30;;;;;;4979955;28;20027;-56
2021/10/25 01:17:55;;;;;;;2.15;1.98;;;9.60;58.40;;;;;;4980619;28;20226;-54
2021/10/25 01:20:23;;;;;;;2.20;2.00;;;9.50;57.90;;;;;;4996666;28;20052;-55
2021/10/25 01:22:49;;;;;;;2.10;1.90;;;9.50;57.80;;;;;;4997029;28;20031;-56
2021/10/25 01:25:15;;;;;;;2.03;1.75;;;9.50;58.00;;;;;;4996616;28;20375;-55
2021/10/25 01:27:40;;;;;;;2.20;2.00;;;9.50;58.10;;;;;;4996337;28;20034;-56
2021/10/25 01:30:06;;;;;;;2.70;2.05;;;9.40;57.90;;;;;;4996753;28;20034;-57
2021/10/25 01:32:32;;;;;;;1.92;1.83;;;9.40;57.80;;;;;;4983128;28;20382;-54
2021/10/25 01:34:58;;;;;;;2.22;2.08;;;9.40;57.90;;;;;;4977203;28;20391;-57
2021/10/25 01:37:24;;;;;;;2.20;2.00;;;9.40;57.80;;;;;;4977045;28;20027;-55
2021/10/25 01:39:50;;;;;;;2.17;1.98;;;9.30;57.70;;;;;;4976531;28;20055;-56
2021/10/25 01:42:16;;;;;;;2.05;1.95;;;9.30;57.80;;;;;;4977204;28;20031;-56
2021/10/25 01:44:42;;;;;;;3.25;2.17;;;9.30;58.10;;;;;;4981390;28;20029;-54
2021/10/25 01:47:08;;;;;;;1.70;1.60;;;9.30;58.20;;;;;;4989951;28;20038;-57
2021/10/25 01:49:34;;;;;;;2.17;1.92;;;9.30;58.20;;;;;;4991975;28;20030;-56
2021/10/25 01:52:00;;;;;;;2.10;2.00;;;9.30;58.10;;;;;;4995937;28;20037;-55
2021/10/25 01:54:26;;;;;;;1.70;1.60;;;9.30;58.10;;;;;;4996379;28;20482;-54
2021/10/25 01:56:52;;;;;;;2.20;1.88;;;9.30;58.20;;;;;;4996165;28;20034;-56
2021/10/25 01:59:18;;;;;;;2.30;2.05;;;9.30;58.30;;;;;;4996672;28;20034;-54
2021/10/25 02:01:44;;;;;;;1.73;1.63;;;9.30;58.50;;;;;;4995823;28;20045;-55
2021/10/25 02:04:10;;;;;;;2.10;1.95;;;9.30;58.80;;;;;;4987828;28;20086;-55
2021/10/25 02:06:36;;;;;;;2.25;2.05;;;9.40;58.90;;;;;;4986914;28;20474;-53
2021/10/25 02:09:03;;;;;;;2.65;1.80;;;9.30;58.60;;;;;;4996180;28;20030;-54
2021/10/25 02:11:28;;;;;;;2.00;1.90;;;9.40;58.70;;;;;;4996214;28;20068;-54
2021/10/25 02:13:54;;;;;;;2.28;2.00;;;9.30;58.60;;;;;;4995714;28;20062;-56
2021/10/25 02:16:20;;;;;;;2.42;2.10;;;9.30;58.50;;;;;;4995770;28;20038;-55
2021/10/25 02:18:45;;;;;;;2.20;2.00;;;9.30;58.50;;;;;;4985398;28;20085;-55
2021/10/25 02:21:12;;;;;;;3.28;2.10;;;9.30;58.60;;;;;;4976313;28;20030;-55
2021/10/25 02:23:38;;;;;;;2.25;2.05;;;9.30;58.60;;;;;;4976099;28;20027;-54
2021/10/25 02:26:04;;;;;;;2.47;2.28;;;9.20;58.40;;;;;;4976053;28;20031;-55
2021/10/25 02:28:31;;;;;;;2.35;2.15;;;9.20;58.40;;;;;;4976393;28;20109;-56
2021/10/25 02:30:57;;;;;;;1.95;1.85;;;9.20;58.70;;;;;;4984430;28;20057;-55
2021/10/25 02:33:23;;;;;;;2.30;2.10;;;9.20;58.90;;;;;;4995513;28;20030;-56
2021/10/25 02:35:50;;;;;;;2.10;2.00;;;9.10;59.00;;;;;;4995258;28;20022;-55
2021/10/25 02:38:17;;;;;;;3.10;2.20;;;9.10;59.20;;;;;;4989116;28;20430;-55
2021/10/25 02:40:43;;;;;;;3.28;2.03;;;9.00;59.30;;;;;;4975646;28;20078;-54
2021/10/25 02:43:09;;;;;;;2.40;2.20;;;9.00;59.50;;;;;;4975705;28;20027;-56
2021/10/25 02:45:35;;;;;;;1.98;1.88;;;9.00;59.70;;;;;;4984866;28;20029;-56
2021/10/25 02:48:01;;;;;;;3.08;2.05;;;8.90;59.70;;;;;;4995128;28;20482;-56
2021/10/25 02:50:27;;;;;;;2.42;2.22;;;8.90;59.80;;;;;;4995209;28;20037;-56
2021/10/25 02:52:53;;;;;;;2.72;2.33;;;8.90;60.00;;;;;;4992308;28;20374;-54
2021/10/25 02:55:19;;;;;;;2.10;1.95;;;8.90;60.10;;;;;;4975651;28;20368;-56
2021/10/25 02:57:45;;;;;;;2.17;1.98;;;8.80;60.10;;;;;;4975498;28;20110;-54
2021/10/25 03:00:13;;;;;;;2.10;2.00;;;8.80;60.30;;;;;;4975452;28;20033;-54
2021/10/25 03:02:39;;;;;;;2.47;2.28;;;8.80;60.40;;;;;;4975082;28;20037;-53
2021/10/25 03:05:06;;;;;;;3.80;2.10;;;8.80;60.50;;;;;;4975440;28;20065;-56
2021/10/25 03:07:31;;;;;;;2.47;2.17;;;8.80;60.40;;;;;;4993243;28;20110;-57
2021/10/25 03:09:58;;;;;;;1.92;1.80;;;8.70;60.30;;;;;;4994167;28;20058;-57
2021/10/25 03:12:24;;;;;;;2.30;2.10;;;8.70;60.20;;;;;;4995057;28;20037;-53
2021/10/25 03:14:49;;;;;;;1.98;1.88;;;8.70;60.30;;;;;;4993974;28;20113;-54
2021/10/25 03:17:15;;;;;;;2.10;2.00;;;8.60;60.30;;;;;;4994592;28;20101;-56
2021/10/25 03:19:41;;;;;;;2.92;2.72;;;8.60;60.50;;;;;;4994855;28;20055;-54
2021/10/25 03:22:07;;;;;;;2.40;2.20;;;8.60;60.40;;;;;;4994724;28;20066;-55
2021/10/25 03:24:34;;;;;;;2.40;2.15;;;8.60;60.60;;;;;;4993052;28;20050;-54
2021/10/25 03:27:01;;;;;;;2.00;1.90;;;8.60;60.60;;;;;;4987777;28;20034;-56
2021/10/25 03:29:27;;;;;;;2.17;1.98;;;8.60;60.80;;;;;;4975156;28;20051;-54
2021/10/25 03:31:53;;;;;;;2.53;2.10;;;8.60;61.00;;;;;;4990698;28;20061;-56
2021/10/25 03:34:19;;;;;;;2.40;2.20;;;8.50;60.80;;;;;;4994565;28;20081;-56
2021/10/25 03:36:47;;;;;;;2.30;2.03;;;8.50;60.90;;;;;;4994212;28;20036;-54
2021/10/25 03:39:14;;;;;;;2.65;2.10;;;8.50;60.80;;;;;;4995947;28;20053;-55
2021/10/25 03:41:45;;;;;;;2.25;2.05;;;8.50;61.00;;;;;;4994440;28;20047;-57
2021/10/25 03:44:15;;;;;;;2.95;2.30;;;8.40;61.10;;;;;;4987629;28;20058;-53
2021/10/25 03:46:48;;;;;;;3.10;2.40;;;8.40;61.20;;;;;;4974933;28;20506;-56
2021/10/25 03:49:53;;;;;;;2.58;2.38;;;8.40;60.90;;;;;;4974957;28;20026;-54
2021/10/25 03:52:18;;;;;;;2.55;1.90;;;8.30;61.00;;;;;;4971580;28;20037;-54
2021/10/25 04:29:47;;;;;;;2.38;2.17;;;8.00;61.50;;;;;;4993845;28;20026;-55
2021/10/25 04:32:13;;;;;;;2.20;2.00;;;8.00;61.30;;;;;;4975874;28;20453;-55
2021/10/25 04:34:39;;;;;;;4.28;2.28;;;8.00;61.30;;;;;;4973685;28;20055;-56
2021/10/25 04:37:04;;;;;;;2.40;2.20;;;8.00;61.30;;;;;;4974068;28;20031;-54
2021/10/25 04:39:30;;;;;;;2.53;2.33;;;8.00;61.30;;;;;;4973836;28;20495;-54
2021/10/25 04:41:56;;;;;;;2.63;2.42;;;8.00;61.50;;;;;;4974235;28;20031;-56
2021/10/25 04:44:21;;;;;;;2.10;2.00;;;8.00;61.80;;;;;;4974558;28;20031;-54
2021/10/25 04:46:47;;;;;;;3.15;2.47;;;8.00;61.60;;;;;;4993038;28;20030;-57
2021/10/25 04:49:13;;;;;;;2.70;2.45;;;8.00;61.60;;;;;;4986251;28;20034;-57
2021/10/25 04:51:38;;;;;;;2.30;2.13;;;8.00;61.40;;;;;;4973251;28;20035;-55
2021/10/25 04:54:04;;;;;;;2.40;2.20;;;8.00;61.30;;;;;;4973876;28;20037;-56
2021/10/25 04:56:31;;;;;;;2.53;2.15;;;8.00;61.30;;;;;;4973709;28;20030;-54
2021/10/25 04:58:56;;;;;;;2.30;2.10;;;8.00;61.40;;;;;;4973939;28;20023;-56
2021/10/25 05:01:22;;;;;;;2.28;2.03;;;8.00;61.10;;;;;;4973759;28;20038;-54
2021/10/25 05:03:48;;;;;;;2.40;2.20;;;8.00;61.20;;;;;;4986774;28;20098;-55
2021/10/25 05:06:18;;;;;;;2.20;2.00;;;8.00;61.80;;;;;;4987201;28;20131;-52
2021/10/25 05:08:45;;;;;;;2.50;2.30;;;8.10;61.20;;;;;;4988616;28;20031;-51
2021/10/25 05:11:11;;;;;;;2.58;2.38;;;8.10;61.00;;;;;;4992067;28;20098;-51
2021/10/25 05:13:37;;;;;;;2.30;2.10;;;8.10;61.00;;;;;;4991494;28;20439;-53
2021/10/25 05:16:03;;;;;;;2.78;2.00;;;8.00;61.00;;;;;;4989918;28;20117;-51
2021/10/25 05:18:29;;;;;;;2.60;2.10;;;8.00;60.90;;;;;;4989403;28;20041;-55
2021/10/25 05:20:54;;;;;;;3.00;2.30;;;8.00;60.90;;;;;;4988518;28;20067;-52
2021/10/25 05:23:20;;;;;;;2.30;2.10;;;8.00;60.90;;;;;;4988042;28;20031;-52
2021/10/25 05:25:48;;;;;;;2.40;2.15;;;8.00;61.20;;;;;;4982883;28;20483;-53
2021/10/25 05:28:14;;;;;;;2.85;2.50;;;7.90;61.20;;;;;;4987641;28;20031;-52
2021/10/25 05:30:41;;;;;;;2.78;2.20;;;7.90;61.40;;;;;;4996049;28;20353;-51
2021/10/25 05:33:06;;;;;;;2.60;2.17;;;7.90;61.50;;;;;;4994091;28;20027;-52
2021/10/25 05:35:32;;;;;;;2.78;2.45;;;7.90;61.50;;;;;;4989974;28;20048;-54
2021/10/25 05:37:58;;;;;;;2.92;2.20;;;7.90;61.60;;;;;;4991065;28;20038;-52
2021/10/25 05:40:24;;;;;;;3.75;3.20;;;7.80;61.60;;;;;;4990765;28;20050;-54
2021/10/25 05:42:51;;;;;;;3.00;2.50;;;7.80;61.70;;;;;;4992578;28;20549;-52
2021/10/25 05:45:17;;;;;;;2.83;2.63;;;7.70;61.70;;;;;;4992964;28;20046;-53
2021/10/25 05:47:43;;;;;;;2.63;2.42;;;7.70;62.00;;;;;;4990714;28;20121;-53
2021/10/25 05:50:08;;;;;;;5.97;3.25;;;7.70;62.70;;;;;;4984497;28;20030;-55
2021/10/25 05:52:34;;;;;;;3.05;2.80;;;7.70;62.20;;;;;;4987122;28;20026;-53
2021/10/25 05:55:00;;;;;;;2.75;2.55;;;7.70;62.30;;;;;;4994613;28;20064;-56
2021/10/25 05:57:26;;;;;;;2.72;2.30;;;7.70;62.40;;;;;;4989570;28;20032;-53
2021/10/25 05:59:52;;;;;;;3.17;2.67;;;7.70;62.30;;;;;;4986551;28;20089;-53
2021/10/25 06:02:25;;;;;;;3.72;2.33;;;7.70;62.60;;;;;;4984373;28;20125;-55
2021/10/25 06:04:51;;;;;;;2.58;2.38;;;7.70;62.50;;;;;;4978570;28;20452;-56
2021/10/25 06:07:16;;;;;;;2.42;2.22;;;7.70;62.50;;;;;;4986941;28;20113;-57
2021/10/25 06:09:44;;;;;;;2.65;2.45;;;7.70;62.50;;;;;;4988434;28;20049;-56
2021/10/25 06:12:15;;;;;;;2.65;2.10;;;7.80;62.60;;;;;;4986757;28;20045;-56
2021/10/25 06:14:43;;;;;;;2.88;2.60;;;7.80;62.60;;;;;;4984178;28;20639;-56
2021/10/25 06:19:50;;;;;;;2.55;2.30;;;8.00;62.70;;;;;;4984202;28;20075;-56
2021/10/25 06:22:19;;;;;;;2.95;2.45;;;8.10;62.50;;;;;;4978167;28;20054;-56
2021/10/25 06:24:46;;;;;;;3.67;2.28;;;8.20;62.40;;;;;;4980551;28;20030;-56
2021/10/25 06:27:12;;;;;;;2.55;2.30;;;8.30;62.10;;;;;;4976322;28;20034;-56
2021/10/25 06:29:37;;;;;;;3.38;2.20;;;8.40;62.00;;;;;;4972267;28;20037;-57
2021/10/25 06:32:03;;;;;;;2.45;2.25;;;8.50;61.80;;;;;;4978018;28;20108;-56
2021/10/25 06:34:37;;;;;;;2.38;2.17;;;8.60;62.00;;;;;;4976716;28;20030;-57
2021/10/25 06:37:03;;;;;;;2.70;2.50;;;8.70;61.60;;;;;;4978449;28;20058;-57
2021/10/25 06:39:40;;;;;;;2.70;2.50;;;8.70;61.30;;;;;;4973520;28;20053;-57
2021/10/25 06:42:07;;;;;;;3.38;2.47;;;8.80;61.10;;;;;;4978564;28;20113;-56
2021/10/25 06:47:22;;;;;;;2.97;2.53;;;8.80;60.90;;;;;;4976435;28;20097;-56
2021/10/25 06:49:48;;;;;;;5.78;2.80;;;8.90;60.90;;;;;;4976720;28;20045;-57
2021/10/25 06:52:14;;;;;;;6.40;2.70;;;8.90;60.60;;;;;;4979157;28;20038;-59
2021/10/25 06:54:40;;;;;;;2.67;2.42;;;8.90;60.30;;;;;;4973507;28;20041;-56
2021/10/25 06:57:19;;;;;;;3.05;2.75;;;9.00;60.10;;;;;;4966957;28;20529;-56
2021/10/25 06:59:45;;;;;;;3.33;2.65;;;9.00;60.00;;;;;;4967707;28;20026;-54
2021/10/25 07:02:11;;;;;;;4.07;2.50;;;9.00;59.80;;;;;;4971919;28;20043;-57
2021/10/25 07:04:37;;;;;;;3.97;2.80;;;9.00;59.80;;;;;;4967093;28;20747;-57
2021/10/25 07:07:03;;;;;;;3.63;2.90;;;9.00;60.40;;;;;;4971896;28;20034;-57
2021/10/25 07:09:29;;;;;;;3.40;3.10;;;9.00;59.60;;;;;;4965515;28;20026;-57
2021/10/25 07:11:55;;;;;;;3.85;2.90;;;9.10;59.50;;;;;;4953954;28;20056;-55
2021/10/25 07:14:32;;;;;;;2.90;2.65;;;9.10;59.60;;;;;;4974258;28;20038;-57
2021/10/25 08:00:39;;;;;;;3.30;2.90;;;9.30;58.90;;;;;;4980153;28;20068;-55
2021/10/25 08:03:24;;;;;;;3.75;2.75;;;9.30;58.90;;;;;;4978789;28;20034;-57
2021/10/25 08:11:16;;;;;;;3.40;2.78;;;9.30;58.70;;;;;;4947780;28;20038;-56
2021/10/25 08:13:44;;;;;;;3.35;2.72;;;9.30;58.70;;;;;;4970545;28;20673;-55
2021/10/25 08:21:19;;;;;;;2.63;2.42;;;9.40;58.40;;;;;;4986987;28;20152;-56
2021/10/25 08:23:45;;;;;;;3.45;2.80;;;9.40;58.40;;;;;;4984987;28;20037;-56
2021/10/25 08:26:11;;;;;;;3.78;2.70;;;9.40;58.40;;;;;;4991323;28;20454;-57
2021/10/25 08:28:38;;;;;;;3.08;2.78;;;9.50;58.40;;;;;;4987976;28;20029;-57
2021/10/25 08:31:07;;;;;;;3.78;2.58;;;9.50;58.40;;;;;;4990635;28;20038;-56
2021/10/25 08:36:22;;;;;;;3.03;2.65;;;9.50;58.40;;;;;;4991955;28;20033;-57
2021/10/25 08:41:33;;;;;;;2.90;2.60;;;9.60;58.40;;;;;;4970910;28;20141;-56
2021/10/25 08:44:01;;;;;;;3.90;2.80;;;9.60;58.40;;;;;;4972719;28;20058;-56
2021/10/25 08:46:29;;;;;;;3.63;3.20;;;9.60;58.40;;;;;;4973309;28;20026;-56
2021/10/25 08:48:55;;;;;;;3.30;3.00;;;9.60;58.30;;;;;;4972850;28;20135;-56
2021/10/25 08:51:23;;;;;;;3.58;3.08;;;9.60;58.30;;;;;;4971853;28;20046;-56
2021/10/25 08:53:49;;;;;;;6.00;2.70;;;9.60;58.20;;;;;;4972182;28;20087;-56
2021/10/25 08:56:18;;;;;;;3.15;2.60;;;9.60;58.20;;;;;;4968179;28;20087;-57
2021/10/25 08:58:49;;;;;;;2.92;2.63;;;9.70;58.20;;;;;;4974898;28;20045;-56
2021/10/25 09:01:26;;;;;;;2.92;2.63;;;9.70;58.20;;;;;;4971295;28;20030;-57
2021/10/25 09:04:06;;;;;;;2.65;2.45;;;9.70;58.10;;;;;;4970837;28;20081;-57
2021/10/25 09:06:31;;;;;;;3.40;2.58;;;9.70;58.00;;;;;;4975861;28;20026;-57
2021/10/25 09:08:59;;;;;;;3.10;2.80;;;9.70;57.90;;;;;;4972568;28;20934;-57
2021/10/25 09:11:25;;;;;;;2.90;2.60;;;9.80;58.00;;;;;;4968840;28;20041;-55
2021/10/25 09:13:51;;;;;;;2.95;2.63;;;9.80;57.80;;;;;;4968754;28;20035;-56
2021/10/25 09:16:17;;;;;;;2.97;2.50;;;9.80;57.70;;;;;;4968655;28;20129;-56
2021/10/25 09:18:43;;;;;;;2.83;2.40;;;9.80;57.60;;;;;;4970559;28;20050;-57
2021/10/25 09:21:10;;;;;;;5.40;2.50;;;9.80;57.60;;;;;;4967034;28;20101;-56
2021/10/25 09:23:40;;;;;;;2.55;2.22;;;9.80;57.60;;;;;;4968558;28;20034;-56
2021/10/25 09:26:11;;;;;;;2.55;2.35;;;9.90;57.40;;;;;;4971265;28;20037;-57
2021/10/25 09:28:41;;;;;;;2.50;2.30;;;9.90;57.30;;;;;;4967988;28;20034;-57
2021/10/25 09:31:12;;;;;;;2.60;2.40;;;9.90;57.10;;;;;;4969991;28;20030;-57
2021/10/25 09:33:42;;;;;;;2.60;2.40;;;9.90;56.90;;;;;;4971431;28;20340;-56
2021/10/25 09:36:12;;;;;;;2.83;2.35;;;9.90;56.90;;;;;;4975011;28;20723;-56
2021/10/25 09:49:57;;;;;;;2.28;2.10;;;10.00;56.10;;;;;;4979015;28;20037;-57
2021/10/25 09:52:41;;;;;;;2.25;2.05;;;10.00;56.00;;;;;;4975167;28;20764;-56
2021/10/25 09:55:11;;;;;;;2.40;2.20;;;10.10;55.80;;;;;;4973362;28;20031;-57
2021/10/25 10:00:10;;;;;;;2.30;2.00;;;10.10;55.60;;;;;;4972152;28;20200;-56
2021/10/25 10:02:37;;;;;;;2.42;2.22;;;10.10;55.50;;;;;;4967799;28;20037;-56
2021/10/25 10:05:05;;;;;;;2.20;2.03;;;10.10;55.40;;;;;;4964565;28;20565;-57
2021/10/25 10:07:35;;;;;;;2.72;1.90;;;10.10;55.30;;;;;;4967993;28;20077;-55
2021/10/25 10:10:01;;;;;;;2.35;2.00;;;10.10;55.20;;;;;;4957130;28;20041;-58
2021/10/25 10:12:27;;;;;;;2.95;2.10;;;10.20;55.10;;;;;;4960482;28;20038;-56
2021/10/25 10:14:59;;;;;;;3.03;2.00;;;10.20;55.10;;;;;;4971803;28;20030;-56
2021/10/25 10:17:51;;;;;;;;;;;10.20;54.80;;;;;;4969084;28;20398;-57
2021/10/25 10:20:29;;;;;;;1.90;1.80;;;10.20;54.70;;;;;;4968446;28;19922;-56
2021/10/25 10:22:59;;;;;;;2.38;2.13;;;10.20;55.00;;;;;;4974065;28;20043;-56
2021/10/25 10:25:27;;;;;;;2.22;2.03;;;10.30;54.90;;;;;;4973257;28;20034;-56
2021/10/25 10:28:11;;;;;;;1.85;1.75;;;10.30;54.80;;;;;;4969218;28;20145;-55
2021/10/25 10:30:54;;;;;;;2.15;1.98;;;10.30;54.50;;;;;;4975103;28;20210;-56
2021/10/25 10:33:35;;;;;;;2.30;2.10;;;10.30;54.30;;;;;;4975187;28;20034;-56
2021/10/25 10:36:10;;;;;;;2.60;2.00;;;10.30;54.10;;;;;;4970096;28;20027;-56
2021/10/25 10:38:49;;;;;;;2.13;1.80;;;10.40;54.00;;;;;;4978329;28;20050;-56
2021/10/25 10:41:17;;;;;;;1.88;1.73;;;10.40;53.80;;;;;;4971207;28;20141;-52
2021/10/25 10:43:57;;;;;;;2.92;2.10;;;10.40;53.70;;;;;;4969286;28;20042;-56
2021/10/25 10:46:24;;;;;;;2.72;2.10;;;10.40;53.50;;;;;;4973996;28;20038;-56
2021/10/25 10:48:58;;;;;;;1.90;1.73;;;10.40;53.30;;;;;;4972346;28;20035;-56
2021/10/25 10:51:29;;;;;;;2.67;1.70;;;10.50;53.20;;;;;;4976807;28;20414;-56
2021/10/25 10:54:11;;;;;;;2.33;1.80;;;10.50;53.20;;;;;;4972226;28;20038;-54
2021/10/25 10:56:42;;;;;;;1.98;1.88;;;10.50;53.10;;;;;;4975595;28;20633;-55
2021/10/25 11:02:03;;;;;;;1.58;1.50;;;10.50;53.00;;;;;;4952843;28;20371;-55
2021/10/25 11:04:33;;;;;;;1.95;1.83;;;10.50;53.00;;;;;;4973429;28;20107;-55
2021/10/25 11:07:03;;;;;;;1.90;1.80;;;10.50;52.80;;;;;;4972992;28;20093;-57
2021/10/25 11:09:31;;;;;;;2.00;1.77;;;10.50;52.70;;;;;;4974560;28;20045;-55
2021/10/25 11:12:06;;;;;;;2.55;1.98;;;10.50;52.70;;;;;;4962990;28;20045;-56
2021/10/25 11:14:34;;;;;;;1.63;1.58;;;10.50;52.60;;;;;;4969746;28;20031;-54
2021/10/25 11:17:15;;;;;;;2.42;1.75;;;10.50;52.50;;;;;;4972093;28;20156;-55
2021/10/25 11:19:49;;;;;;;1.58;1.38;;;10.50;52.50;;;;;;4974491;28;20027;-56
2021/10/25 11:22:32;;;;;;;1.95;1.85;;;10.50;52.40;;;;;;4965137;28;20446;-55
2021/10/25 11:25:04;;;;;;;1.98;1.60;;;10.50;52.30;;;;;;4965160;28;20030;-54
2021/10/25 11:27:31;;;;;;;1.70;1.60;;;10.60;52.30;;;;;;4971919;28;20050;-54
2021/10/25 11:30:13;;;;;;;1.42;1.33;;;10.60;52.10;;;;;;4951090;28;20034;-55
2021/10/25 11:32:40;;;;;;;1.70;1.60;;;10.60;51.80;;;;;;4970877;28;20155;-56
2021/10/25 11:35:10;;;;;;;1.77;1.67;;;10.60;51.80;;;;;;4968492;28;20041;-55
2021/10/25 11:37:37;;;;;;;1.38;1.27;;;10.60;52.40;;;;;;4962366;28;20056;-55
2021/10/25 11:40:10;;;;;;;2.33;1.67;;;10.70;51.70;;;;;;4961669;28;20054;-56
2021/10/25 11:42:38;;;;;;;2.20;1.45;;;10.60;51.70;;;;;;4970680;28;20499;-55
2021/10/25 11:45:22;;;;;;;1.73;1.60;;;10.70;51.60;;;;;;4971438;28;20091;-57
2021/10/25 11:47:49;;;;;;;1.60;1.50;;;10.70;51.50;;;;;;4968243;28;20068;-56
2021/10/25 11:50:18;;;;;;;1.77;1.60;;;10.70;51.30;;;;;;4967741;28;20031;-56
2021/10/25 11:53:10;;;;;;;1.80;1.70;;;10.70;51.20;;;;;;4967420;28;20054;-57
2021/10/25 11:55:38;;;;;;;1.90;1.80;;;10.70;51.10;;;;;;4968293;28;20038;-55
2021/10/25 11:58:07;;;;;;;2.42;1.67;;;10.70;51.10;;;;;;4970240;28;20034;-59
2021/10/25 12:00:36;;;;;;;2.53;1.92;;;10.80;51.00;;;;;;4964116;28;20038;-58
2021/10/25 12:03:09;;;;;;;2.28;2.10;;;10.80;50.90;;;;;;4950365;28;21033;-56
2021/10/25 12:05:35;;;;;;;2.00;1.80;;;10.70;51.20;;;;;;4970763;28;20031;-56
2021/10/25 12:08:01;;;;;;;3.53;1.90;;;10.70;51.00;;;;;;4964189;28;21159;-55
2021/10/25 12:10:29;;;;;;;1.70;1.60;;;10.80;51.10;;;;;;4970641;28;20049;-55
2021/10/25 12:13:00;;;;;;;2.53;1.70;;;10.80;51.00;;;;;;4966373;28;20034;-56
2021/10/25 12:15:27;;;;;;;1.48;1.40;;;10.80;50.90;;;;;;4963450;28;20046;-56
2021/10/25 12:18:17;;;;;;;2.10;1.85;;;10.80;50.90;;;;;;4966334;28;20042;-55
2021/10/25 12:20:43;;;;;;;2.03;1.80;;;10.80;50.90;;;;;;4971130;28;20042;-56
2021/10/25 12:23:11;;;;;;;1.95;1.83;;;10.80;50.80;;;;;;4972210;28;20019;-54
2021/10/25 12:25:38;;;;;;;2.42;1.80;;;10.70;50.70;;;;;;4968093;28;20050;-55
2021/10/25 12:28:14;;;;;;;2.00;1.83;;;10.80;50.70;;;;;;4967125;28;20031;-55
2021/10/25 12:30:40;;;;;;;3.10;1.77;;;10.80;50.70;;;;;;4968475;28;20042;-55
2021/10/25 12:33:06;;;;;;;2.42;2.08;;;10.80;50.60;;;;;;4960203;28;20088;-56
2021/10/25 12:35:34;;;;;;;2.22;1.95;;;10.80;50.40;;;;;;4977906;28;20447;-53
2021/10/25 12:38:02;;;;;;;1.88;1.70;;;10.80;50.30;;;;;;4972160;28;20045;-55
2021/10/25 12:40:28;;;;;;;1.88;1.77;;;10.90;50.30;;;;;;4979642;28;20057;-56
2021/10/25 12:43:01;;;;;;;2.30;1.80;;;10.90;50.20;;;;;;4969620;28;20066;-56
2021/10/25 12:45:31;;;;;;;1.80;1.70;;;10.90;50.10;;;;;;4975020;28;20022;-55
2021/10/25 12:48:00;;;;;;;1.80;1.70;;;10.90;50.10;;;;;;4971953;28;20066;-55
2021/10/25 12:50:32;;;;;;;1.60;1.50;;;10.90;50.10;;;;;;4972184;28;20038;-56
2021/10/25 12:52:58;;;;;;;2.08;1.90;;;11.00;50.10;;;;;;4973142;28;20050;-56
2021/10/25 12:55:24;;;;;;;2.53;1.63;;;10.90;50.00;;;;;;4970160;28;20034;-56
2021/10/25 12:57:55;;;;;;;1.90;1.70;;;10.90;50.00;;;;;;4969219;28;21169;-55
2021/10/25 13:00:20;;;;;;;2.10;1.92;;;11.00;50.10;;;;;;4971446;28;20037;-56
2021/10/25 13:02:49;;;;;;;1.63;1.52;;;11.00;50.10;;;;;;4969668;28;20035;-55
2021/10/25 13:05:21;;;;;;;1.60;1.50;;;11.00;50.10;;;;;;4960960;28;20042;-55
2021/10/25 13:07:52;;;;;;;2.38;1.77;;;11.00;50.00;;;;;;4960454;28;22894;-56
2021/10/25 13:10:21;;;;;;;1.83;1.73;;;10.90;49.90;;;;;;4963690;28;20030;-55
2021/10/25 13:12:47;;;;;;;2.22;1.77;;;11.00;49.80;;;;;;4969684;28;20101;-56
2021/10/25 13:15:13;;;;;;;2.13;1.73;;;11.00;49.90;;;;;;4967731;28;20041;-55
2021/10/25 13:17:41;;;;;;;2.30;1.50;;;11.00;49.80;;;;;;4975289;28;20023;-56
2021/10/25 13:20:08;;;;;;;2.10;1.80;;;11.00;49.80;;;;;;4971620;28;20052;-55
2021/10/25 13:22:34;;;;;;;2.05;1.90;;;11.00;49.60;;;;;;4973162;28;20077;-55
2021/10/25 13:24:59;;;;;;;2.08;1.90;;;11.00;49.80;;;;;;4975518;28;20034;-56
2021/10/25 13:27:25;;;;;;;1.55;1.45;;;11.00;49.60;;;;;;4972245;28;20034;-56
2021/10/25 13:29:51;;;;;;;1.60;1.50;;;11.00;49.70;;;;;;4971695;28;20026;-53
2021/10/25 13:32:17;;;;;;;2.38;2.08;;;11.00;49.90;;;;;;4959554;28;20475;-54
2021/10/25 13:34:44;;;;;;;1.90;1.80;;;11.00;50.10;;;;;;4970019;28;20710;-54
2021/10/25 13:37:10;;;;;;;1.70;1.60;;;11.00;50.00;;;;;;4969471;28;20027;-56
2021/10/25 13:39:35;;;;;;;1.77;1.67;;;11.00;50.70;;;;;;4965677;28;20073;-55
2021/10/25 13:42:01;;;;;;;1.65;1.55;;;11.00;50.00;;;;;;4968618;28;20584;-55
2021/10/25 13:44:27;;;;;;;4.32;3.67;;;11.00;49.80;;;;;;4969098;28;20022;-58
2021/10/25 13:46:53;;;;;;;5.03;3.50;;;11.00;49.80;;;;;;4964508;28;20026;-57
2021/10/25 13:49:19;;;;;;;5.70;4.05;;;11.00;50.10;;;;;;4970183;28;20033;-54
2021/10/25 13:51:45;;;;;;;4.03;3.25;;;11.00;50.10;;;;;;4972948;28;20033;-54
2021/10/25 13:54:11;;;;;;;9.30;6.35;;;11.00;49.90;;;;;;4970442;28;20398;-55
2021/10/25 13:56:37;;;;;;;9.20;5.85;;;11.00;50.00;;;;;;4974468;28;20042;-55
2021/10/25 13:59:04;;;;;;;7.25;4.25;;;11.00;50.10;;;;;;4970443;28;20101;-55
2021/10/25 14:01:31;;;;;;;5.35;3.50;;;11.00;50.10;;;;;;4967860;28;20045;-54
2021/10/25 14:03:57;;;;;;;3.05;2.58;;;11.00;50.10;;;;;;4971620;28;20038;-56
2021/10/25 14:06:26;;;;;;;2.50;2.30;;;10.90;50.00;;;;;;4970365;28;20058;-54
2021/10/25 14:08:53;;;;;;;3.42;2.90;;;11.00;50.10;;;;;;4973683;28;20062;-55
2021/10/25 14:11:20;;;;;;;3.00;2.45;;;10.90;50.10;;;;;;4971096;28;20039;-55
2021/10/25 14:14:05;;;;;;;3.53;2.70;;;10.90;50.30;;;;;;4976718;28;20065;-53
2021/10/25 14:16:35;;;;;;;3.78;2.60;;;10.90;50.50;;;;;;4971246;28;20713;-52
2021/10/25 14:19:05;;;;;;;2.88;2.20;;;10.90;50.70;;;;;;4977370;28;20038;-54
2021/10/25 14:21:34;;;;;;;2.55;2.20;;;10.80;50.70;;;;;;4970899;28;20487;-54
2021/10/25 14:24:01;;;;;;;2.47;2.28;;;10.80;50.90;;;;;;4978064;28;20034;-55
2021/10/25 14:26:27;;;;;;;1.92;1.80;;;10.80;50.90;;;;;;4975985;28;20059;-52
2021/10/25 14:28:53;;;;;;;1.92;1.77;;;10.80;51.00;;;;;;4969495;28;20138;-55
2021/10/25 14:31:18;;;;;;;2.83;2.20;;;10.70;51.20;;;;;;4964694;28;20038;-53
2021/10/25 14:33:44;;;;;;;2.47;2.28;;;10.70;51.30;;;;;;4966418;28;20125;-54
2021/10/25 14:36:11;;;;;;;2.72;2.30;;;10.70;51.30;;;;;;4969564;28;20101;-55
2021/10/25 14:41:28;;;;;;;2.78;2.20;;;10.60;51.80;;;;;;4969233;28;20046;-54
2021/10/25 14:44:00;;;;;;;3.15;2.13;;;10.60;51.60;;;;;;4962516;28;20039;-55
2021/10/25 14:53:21;;;;;;;4.32;3.17;;;10.50;51.70;;;;;;4964662;28;20133;-55
2021/10/25 14:55:02;;;;;;;2.47;2.20;;;10.50;51.90;;;;;;4960056;28;20045;-55
2021/10/25 14:57:28;;;;;;;2.75;2.05;;;10.50;51.90;;;;;;4964582;28;20042;-55
2021/10/25 14:59:55;;;;;;;3.78;2.50;;;10.40;52.10;;;;;;4972155;28;20863;-55
2021/10/25 15:02:22;;;;;;;3.22;2.50;;;10.40;52.10;;;;;;4967223;28;20065;-55
2021/10/25 15:04:49;;;;;;;4.47;2.95;;;10.30;52.10;;;;;;4970301;28;20875;-55